createdAt,value
2018-07-30T00:00:33.769Z,1010.67
2018-07-30T00:01:33.837Z,1010.68
2018-07-30T00:02:33.913Z,1010.73
2018-07-30T00:03:33.981Z,1010.68
2018-07-30T00:04:34.041Z,1010.71
2018-07-30T00:05:34.109Z,1010.73
2018-07-30T00:06:34.985Z,1010.71
2018-07-30T00:07:34.402Z,1010.72
2018-07-30T00:08:34.312Z,1010.69
2018-07-30T00:09:34.385Z,1010.69
2018-07-30T00:10:34.449Z,1010.67
2018-07-30T00:11:34.516Z,1010.67
2018-07-30T00:12:34.593Z,1010.71
2018-07-30T00:13:34.665Z,1010.70
2018-07-30T00:14:34.721Z,1010.71
2018-07-30T00:15:34.793Z,1010.70
2018-07-30T00:16:34.857Z,1010.71
2018-07-30T00:17:34.937Z,1010.68
2018-07-30T00:18:35.005Z,1010.69
2018-07-30T00:19:35.062Z,1010.68
2018-07-30T00:20:35.129Z,1010.69
2018-07-30T00:21:35.202Z,1010.67
2018-07-30T00:22:35.285Z,1010.70
2018-07-30T00:23:35.334Z,1010.71
2018-07-30T00:24:35.406Z,1010.70
2018-07-30T00:25:35.473Z,1010.66
2018-07-30T00:26:35.537Z,1010.65
2018-07-30T00:27:35.614Z,1010.66
2018-07-30T00:28:35.681Z,1010.64
2018-07-30T00:29:35.742Z,1010.62
2018-07-30T00:30:35.809Z,1010.62
2018-07-30T00:31:35.878Z,1010.62
2018-07-30T00:32:35.950Z,1010.61
2018-07-30T00:33:36.022Z,1010.63
2018-07-30T00:34:36.086Z,1010.62
2018-07-30T00:35:36.154Z,1010.66
2018-07-30T00:36:36.222Z,1010.65
2018-07-30T00:37:36.437Z,1010.65
2018-07-30T00:38:36.354Z,1010.67
2018-07-30T00:39:36.422Z,1010.68
2018-07-30T00:40:36.491Z,1010.66
2018-07-30T00:41:36.558Z,1010.63
2018-07-30T00:42:36.634Z,1010.65
2018-07-30T00:43:36.705Z,1010.65
2018-07-30T00:44:36.763Z,1010.66
2018-07-30T00:45:36.830Z,1010.66
2018-07-30T00:46:36.898Z,1010.73
2018-07-30T00:47:36.978Z,1010.75
2018-07-30T00:48:37.038Z,1010.77
2018-07-30T00:49:37.106Z,1010.76
2018-07-30T00:50:37.171Z,1010.78
2018-07-30T00:51:37.241Z,1010.80
2018-07-30T00:52:37.311Z,1010.78
2018-07-30T00:53:37.479Z,1010.77
2018-07-30T00:54:37.442Z,1010.78
2018-07-30T00:55:37.511Z,1010.81
2018-07-30T00:56:37.575Z,1010.79
2018-07-30T00:57:37.643Z,1010.82
2018-07-30T00:58:37.733Z,1010.79
2018-07-30T00:59:37.786Z,1010.78
2018-07-30T01:00:37.847Z,1010.78
2018-07-30T01:01:37.915Z,1010.78
2018-07-30T01:02:37.983Z,1010.82
2018-07-30T01:03:38.059Z,1010.78
2018-07-30T01:04:38.127Z,1010.83
2018-07-30T01:05:38.187Z,1010.83
2018-07-30T01:06:38.255Z,1010.87
2018-07-30T01:07:38.379Z,1010.86
2018-07-30T01:08:38.407Z,1010.92
2018-07-30T01:09:38.467Z,1010.93
2018-07-30T01:10:38.527Z,1010.93
2018-07-30T01:11:38.595Z,1010.89
2018-07-30T01:12:38.686Z,1010.88
2018-07-30T01:13:38.735Z,1010.89
2018-07-30T01:14:38.827Z,1010.89
2018-07-30T01:15:38.863Z,1010.87
2018-07-30T01:16:38.931Z,1010.85
2018-07-30T01:17:39.002Z,1010.81
2018-07-30T01:18:39.091Z,1010.81
2018-07-30T01:19:39.138Z,1010.80
2018-07-30T01:20:39.204Z,1010.78
2018-07-30T01:21:39.279Z,1010.79
2018-07-30T01:22:39.341Z,1010.81
2018-07-30T01:23:39.413Z,1010.84
2018-07-30T01:24:39.485Z,1010.86
2018-07-30T01:25:39.539Z,1010.87
2018-07-30T01:26:39.607Z,1010.87
2018-07-30T01:27:39.675Z,1010.85
2018-07-30T01:28:39.751Z,1010.89
2018-07-30T01:29:39.820Z,1010.90
2018-07-30T01:30:39.880Z,1010.91
2018-07-30T01:31:39.952Z,1010.92
2018-07-30T01:32:40.012Z,1010.92
2018-07-30T01:33:40.232Z,1010.91
2018-07-30T01:34:40.149Z,1010.89
2018-07-30T01:35:40.222Z,1010.88
2018-07-30T01:36:40.283Z,1010.86
2018-07-30T01:37:40.355Z,1010.86
2018-07-30T01:38:40.436Z,1010.87
2018-07-30T01:39:40.492Z,1010.84
2018-07-30T01:40:40.552Z,1010.84
2018-07-30T01:41:40.624Z,1010.80
2018-07-30T01:42:40.688Z,1010.86
2018-07-30T01:43:40.764Z,1010.88
2018-07-30T01:44:40.829Z,1010.88
2018-07-30T01:45:40.888Z,1010.88
2018-07-30T01:46:40.960Z,1010.89
2018-07-30T01:47:41.025Z,1010.91
2018-07-30T01:48:41.116Z,1010.92
2018-07-30T01:49:41.160Z,1010.91
2018-07-30T01:50:41.228Z,1010.89
2018-07-30T01:51:41.304Z,1010.90
2018-07-30T01:52:41.360Z,1010.91
2018-07-30T01:53:41.436Z,1010.90
2018-07-30T01:54:41.504Z,1010.89
2018-07-30T01:55:41.578Z,1010.94
2018-07-30T01:56:41.629Z,1010.91
2018-07-30T01:57:41.693Z,1010.93
2018-07-30T01:58:41.782Z,1010.89
2018-07-30T01:59:41.844Z,1010.90
2018-07-30T02:00:41.901Z,1010.90
2018-07-30T02:01:41.968Z,1010.89
2018-07-30T02:02:42.045Z,1010.87
2018-07-30T02:03:42.129Z,1010.83
2018-07-30T02:04:42.169Z,1010.87
2018-07-30T02:05:42.237Z,1010.85
2018-07-30T02:06:42.305Z,1010.85
2018-07-30T02:07:42.365Z,1010.84
2018-07-30T02:08:42.469Z,1010.85
2018-07-30T02:09:42.525Z,1010.84
2018-07-30T02:10:42.573Z,1010.88
2018-07-30T02:11:42.641Z,1010.89
2018-07-30T02:12:42.705Z,1010.84
2018-07-30T02:13:42.781Z,1010.85
2018-07-30T02:14:42.854Z,1010.87
2018-07-30T02:15:42.909Z,1010.86
2018-07-30T02:16:42.989Z,1010.85
2018-07-30T02:17:43.058Z,1010.87
2018-07-30T02:18:43.145Z,1010.83
2018-07-30T02:19:43.185Z,1010.87
2018-07-30T02:20:43.242Z,1010.88
2018-07-30T02:21:43.310Z,1010.89
2018-07-30T02:22:43.382Z,1010.90
2018-07-30T02:23:43.454Z,1010.87
2018-07-30T02:24:43.518Z,1010.88
2018-07-30T02:25:43.580Z,1010.86
2018-07-30T02:26:43.646Z,1010.86
2018-07-30T02:27:43.716Z,1010.90
2018-07-30T02:28:43.806Z,1010.90
2018-07-30T02:29:43.854Z,1010.90
2018-07-30T02:30:43.914Z,1010.94
2018-07-30T02:31:43.985Z,1010.98
2018-07-30T02:32:44.051Z,1010.99
2018-07-30T02:33:44.139Z,1010.96
2018-07-30T02:34:44.182Z,1010.99
2018-07-30T02:35:44.255Z,1011.01
2018-07-30T02:36:44.319Z,1011.02
2018-07-30T02:37:44.386Z,1010.98
2018-07-30T02:38:44.458Z,1010.99
2018-07-30T02:39:44.523Z,1010.97
2018-07-30T02:40:44.584Z,1010.97
2018-07-30T02:41:44.655Z,1010.97
2018-07-30T02:42:44.719Z,1010.96
2018-07-30T02:43:44.803Z,1010.96
2018-07-30T02:44:44.859Z,1010.96
2018-07-30T02:45:44.923Z,1010.98
2018-07-30T02:46:44.994Z,1010.98
2018-07-30T02:47:45.061Z,1010.96
2018-07-30T02:48:45.459Z,1010.95
2018-07-30T02:49:45.189Z,1010.95
2018-07-30T02:50:45.262Z,1010.95
2018-07-30T02:51:45.320Z,1010.98
2018-07-30T02:52:45.387Z,1010.96
2018-07-30T02:53:45.463Z,1010.95
2018-07-30T02:54:45.539Z,1010.94
2018-07-30T02:55:45.587Z,1010.99
2018-07-30T02:56:45.666Z,1011.04
2018-07-30T02:57:45.830Z,1011.04
2018-07-30T02:58:45.800Z,1011.02
2018-07-30T02:59:45.868Z,1011.06
2018-07-30T03:00:45.923Z,1011.05
2018-07-30T03:01:45.988Z,1011.04
2018-07-30T03:02:46.059Z,1011.04
2018-07-30T03:03:46.151Z,1011.05
2018-07-30T03:04:46.192Z,1011.01
2018-07-30T03:05:46.255Z,1011.01
2018-07-30T03:06:46.324Z,1011.00
2018-07-30T03:07:46.391Z,1011.01
2018-07-30T03:08:46.463Z,1011.03
2018-07-30T03:09:46.536Z,1011.02
2018-07-30T03:10:46.601Z,1011.05
2018-07-30T03:11:46.667Z,1011.07
2018-07-30T03:12:46.744Z,1011.09
2018-07-30T03:13:46.796Z,1011.10
2018-07-30T03:14:46.888Z,1011.09
2018-07-30T03:15:46.924Z,1011.09
2018-07-30T03:16:46.993Z,1011.09
2018-07-30T03:17:47.060Z,1011.08
2018-07-30T03:18:47.236Z,1011.06
2018-07-30T03:19:47.213Z,1011.10
2018-07-30T03:20:47.260Z,1011.13
2018-07-30T03:21:47.324Z,1011.14
2018-07-30T03:22:47.392Z,1011.19
2018-07-30T03:23:47.464Z,1011.17
2018-07-30T03:24:47.532Z,1011.17
2018-07-30T03:25:47.592Z,1011.19
2018-07-30T03:26:47.657Z,1011.19
2018-07-30T03:27:47.728Z,1011.19
2018-07-30T03:28:47.813Z,1011.19
2018-07-30T03:29:47.865Z,1011.17
2018-07-30T03:30:47.925Z,1011.23
2018-07-30T03:31:48.001Z,1011.19
2018-07-30T03:32:48.061Z,1011.23
2018-07-30T03:33:48.437Z,1011.23
2018-07-30T03:34:48.193Z,1011.25
2018-07-30T03:35:48.261Z,1011.30
2018-07-30T03:36:48.329Z,1011.33
2018-07-30T03:37:48.394Z,1011.33
2018-07-30T03:38:48.469Z,1011.37
2018-07-30T03:39:48.533Z,1011.34
2018-07-30T03:40:48.593Z,1011.35
2018-07-30T03:41:48.661Z,1011.36
2018-07-30T03:42:48.729Z,1011.34
2018-07-30T03:43:48.846Z,1011.34
2018-07-30T03:44:48.868Z,1011.35
2018-07-30T03:45:48.934Z,1011.31
2018-07-30T03:46:48.994Z,1011.37
2018-07-30T03:47:49.067Z,1011.33
2018-07-30T03:48:49.234Z,1011.35
2018-07-30T03:49:49.194Z,1011.39
2018-07-30T03:50:49.261Z,1011.39
2018-07-30T03:51:49.330Z,1011.39
2018-07-30T03:52:49.394Z,1011.41
2018-07-30T03:53:49.596Z,1011.44
2018-07-30T03:54:49.557Z,1011.42
2018-07-30T03:55:49.597Z,1011.37
2018-07-30T03:56:49.662Z,1011.38
2018-07-30T03:57:49.730Z,1011.43
2018-07-30T03:58:49.806Z,1011.41
2018-07-30T03:59:49.874Z,1011.42
2018-07-30T04:00:49.926Z,1011.43
2018-07-30T04:01:49.994Z,1011.40
2018-07-30T04:02:50.062Z,1011.44
2018-07-30T04:03:50.442Z,1011.42
2018-07-30T04:04:50.198Z,1011.46
2018-07-30T04:05:50.273Z,1011.46
2018-07-30T04:06:50.330Z,1011.44
2018-07-30T04:07:50.446Z,1011.49
2018-07-30T04:08:50.462Z,1011.45
2018-07-30T04:09:50.534Z,1011.49
2018-07-30T04:10:50.594Z,1011.49
2018-07-30T04:11:50.662Z,1011.47
2018-07-30T04:12:50.751Z,1011.46
2018-07-30T04:13:50.802Z,1011.51
2018-07-30T04:14:50.870Z,1011.48
2018-07-30T04:15:50.926Z,1011.54
2018-07-30T04:16:50.994Z,1011.52
2018-07-30T04:17:51.063Z,1011.57
2018-07-30T04:18:51.278Z,1011.57
2018-07-30T04:19:51.194Z,1011.59
2018-07-30T04:20:51.258Z,1011.55
2018-07-30T04:21:51.332Z,1011.56
2018-07-30T04:22:51.395Z,1011.58
2018-07-30T04:23:51.467Z,1011.61
2018-07-30T04:24:51.538Z,1011.61
2018-07-30T04:25:51.595Z,1011.58
2018-07-30T04:26:51.660Z,1011.61
2018-07-30T04:27:51.727Z,1011.63
2018-07-30T04:28:51.805Z,1011.65
2018-07-30T04:29:51.867Z,1011.69
2018-07-30T04:30:51.936Z,1011.71
2018-07-30T04:31:51.995Z,1011.68
2018-07-30T04:32:52.059Z,1011.67
2018-07-30T04:33:52.139Z,1011.67
2018-07-30T04:34:52.196Z,1011.63
2018-07-30T04:35:52.263Z,1011.63
2018-07-30T04:36:52.326Z,1011.63
2018-07-30T04:37:52.390Z,1011.64
2018-07-30T04:38:52.466Z,1011.66
2018-07-30T04:39:52.538Z,1011.65
2018-07-30T04:40:52.595Z,1011.72
2018-07-30T04:41:52.659Z,1011.68
2018-07-30T04:42:52.727Z,1011.71
2018-07-30T04:43:52.843Z,1011.70
2018-07-30T04:44:52.867Z,1011.75
2018-07-30T04:45:52.927Z,1011.75
2018-07-30T04:46:52.995Z,1011.77
2018-07-30T04:47:53.062Z,1011.76
2018-07-30T04:48:53.151Z,1011.78
2018-07-30T04:49:53.195Z,1011.77
2018-07-30T04:50:53.263Z,1011.78
2018-07-30T04:51:53.328Z,1011.80
2018-07-30T04:52:53.408Z,1011.81
2018-07-30T04:53:53.467Z,1011.80
2018-07-30T04:54:53.535Z,1011.79
2018-07-30T04:55:53.615Z,1011.82
2018-07-30T04:56:53.708Z,1011.87
2018-07-30T04:57:53.732Z,1011.86
2018-07-30T04:58:53.804Z,1011.79
2018-07-30T04:59:53.896Z,1011.81
2018-07-30T05:00:53.932Z,1011.79
2018-07-30T05:01:53.996Z,1011.78
2018-07-30T05:02:54.064Z,1011.80
2018-07-30T05:03:54.306Z,1011.80
2018-07-30T05:04:54.201Z,1011.83
2018-07-30T05:05:54.264Z,1011.86
2018-07-30T05:06:54.333Z,1011.87
2018-07-30T05:07:54.404Z,1011.86
2018-07-30T05:08:54.472Z,1011.83
2018-07-30T05:09:54.541Z,1011.84
2018-07-30T05:10:54.605Z,1011.83
2018-07-30T05:11:54.665Z,1011.83
2018-07-30T05:12:54.741Z,1011.80
2018-07-30T05:13:54.809Z,1011.80
2018-07-30T05:14:55.729Z,1011.83
2018-07-30T05:15:54.945Z,1011.81
2018-07-30T05:16:55.005Z,1011.80
2018-07-30T05:17:55.072Z,1011.81
2018-07-30T05:18:55.281Z,1011.82
2018-07-30T05:19:55.208Z,1011.84
2018-07-30T05:20:55.276Z,1011.82
2018-07-30T05:21:55.341Z,1011.81
2018-07-30T05:22:55.409Z,1011.81
2018-07-30T05:23:55.481Z,1011.82
2018-07-30T05:24:55.577Z,1011.86
2018-07-30T05:25:55.609Z,1011.83
2018-07-30T05:26:55.673Z,1011.87
2018-07-30T05:27:55.744Z,1011.86
2018-07-30T05:28:55.820Z,1011.89
2018-07-30T05:29:55.882Z,1011.91
2018-07-30T05:30:55.941Z,1011.86
2018-07-30T05:31:56.010Z,1011.84
2018-07-30T05:32:56.078Z,1011.79
2018-07-30T05:33:56.157Z,1011.84
2018-07-30T05:34:56.213Z,1011.84
2018-07-30T05:35:56.277Z,1011.89
2018-07-30T05:36:56.345Z,1011.86
2018-07-30T05:37:56.415Z,1011.83
2018-07-30T05:38:56.486Z,1011.84
2018-07-30T05:39:56.554Z,1011.85
2018-07-30T05:40:56.614Z,1011.87
2018-07-30T05:41:56.677Z,1011.87
2018-07-30T05:42:56.747Z,1011.85
2018-07-30T05:43:56.822Z,1011.87
2018-07-30T05:44:56.886Z,1011.85
2018-07-30T05:45:56.946Z,1011.89
2018-07-30T05:46:57.018Z,1011.92
2018-07-30T05:47:57.083Z,1011.91
2018-07-30T05:48:57.166Z,1011.92
2018-07-30T05:49:57.223Z,1011.89
2018-07-30T05:50:57.283Z,1011.93
2018-07-30T05:51:57.354Z,1011.91
2018-07-30T05:52:57.419Z,1011.89
2018-07-30T05:53:57.490Z,1011.93
2018-07-30T05:54:57.558Z,1011.92
2018-07-30T05:55:57.619Z,1011.92
2018-07-30T05:56:57.687Z,1011.94
2018-07-30T05:57:57.750Z,1011.95
2018-07-30T05:58:57.839Z,1011.97
2018-07-30T05:59:57.894Z,1011.99
2018-07-30T06:00:57.954Z,1011.98
2018-07-30T06:01:58.029Z,1011.98
2018-07-30T06:02:58.087Z,1012.01
2018-07-30T06:03:58.325Z,1012.05
2018-07-30T06:04:58.223Z,1012.03
2018-07-30T06:05:58.295Z,1012.02
2018-07-30T06:06:58.359Z,1012.04
2018-07-30T06:07:58.431Z,1012.04
2018-07-30T06:08:58.503Z,1012.02
2018-07-30T06:09:58.567Z,1012.02
2018-07-30T06:10:58.627Z,1012.00
2018-07-30T06:11:58.695Z,1012.04
2018-07-30T06:12:58.763Z,1012.02
2018-07-30T06:13:58.835Z,1011.99
2018-07-30T06:14:58.903Z,1012.02
2018-07-30T06:15:58.963Z,1012.00
2018-07-30T06:16:59.031Z,1012.05
2018-07-30T06:17:59.099Z,1012.04
2018-07-30T06:18:59.183Z,1012.02
2018-07-30T06:19:59.239Z,1012.04
2018-07-30T06:20:59.336Z,1012.06
2018-07-30T06:21:59.369Z,1012.10
2018-07-30T06:22:59.438Z,1012.11
2018-07-30T06:23:59.511Z,1012.08
2018-07-30T06:24:59.583Z,1012.13
2018-07-30T06:25:59.643Z,1012.17
2018-07-30T06:26:59.707Z,1012.18
2018-07-30T06:27:59.775Z,1012.20
2018-07-30T06:28:59.852Z,1012.29
2018-07-30T06:29:59.924Z,1012.31
2018-07-30T06:30:59.981Z,1012.35
2018-07-30T06:32:00.049Z,1012.45
2018-07-30T06:33:00.116Z,1012.43
2018-07-30T06:34:00.291Z,1012.52
2018-07-30T06:35:00.256Z,1012.58
2018-07-30T06:36:00.332Z,1012.68
2018-07-30T06:37:00.388Z,1012.67
2018-07-30T06:38:00.464Z,1012.73
2018-07-30T06:39:00.536Z,1012.72
2018-07-30T06:40:00.604Z,1012.92
2018-07-30T06:41:00.664Z,1012.88
2018-07-30T06:42:00.738Z,1012.98
2018-07-30T06:43:00.804Z,1012.70
2018-07-30T06:44:00.879Z,1012.56
2018-07-30T06:45:00.949Z,1012.68
2018-07-30T06:46:01.012Z,1012.50
2018-07-30T06:47:01.080Z,1012.48
2018-07-30T06:48:01.182Z,1012.45
2018-07-30T06:49:01.241Z,1012.47
2018-07-30T06:50:01.288Z,1012.42
2018-07-30T06:51:01.360Z,1012.48
2018-07-30T06:52:01.432Z,1012.44
2018-07-30T06:53:01.500Z,1012.46
2018-07-30T06:54:01.577Z,1012.49
2018-07-30T06:55:01.644Z,1012.51
2018-07-30T06:56:01.709Z,1012.54
2018-07-30T06:57:01.778Z,1012.57
2018-07-30T06:58:01.849Z,1012.56
2018-07-30T06:59:01.925Z,1012.58
2018-07-30T07:00:01.993Z,1012.61
2018-07-30T07:01:02.102Z,1012.58
2018-07-30T07:02:02.179Z,1012.61
2018-07-30T07:03:02.199Z,1012.59
2018-07-30T07:04:02.281Z,1012.65
2018-07-30T07:05:02.337Z,1012.67
2018-07-30T07:06:02.405Z,1012.67
2018-07-30T07:07:02.483Z,1012.74
2018-07-30T07:08:02.545Z,1012.70
2018-07-30T07:09:02.626Z,1012.67
2018-07-30T07:10:02.693Z,1012.72
2018-07-30T07:11:02.758Z,1012.78
2018-07-30T07:12:02.829Z,1012.80
2018-07-30T07:13:02.897Z,1012.87
2018-07-30T07:14:02.978Z,1012.91
2018-07-30T07:15:03.046Z,1013.06
2018-07-30T07:16:03.111Z,1012.94
2018-07-30T07:17:03.272Z,1013.47
2018-07-30T07:18:03.250Z,1013.27
2018-07-30T07:19:03.329Z,1013.78
2018-07-30T07:20:03.549Z,1012.88
2018-07-30T07:21:03.466Z,1012.92
2018-07-30T07:22:03.581Z,1012.95
2018-07-30T07:23:03.605Z,1013.02
2018-07-30T07:24:03.681Z,1013.01
2018-07-30T07:25:03.758Z,1013.58
2018-07-30T07:26:03.835Z,1013.72
2018-07-30T07:27:03.984Z,1013.37
2018-07-30T07:28:04.042Z,1013.69
2018-07-30T07:29:04.038Z,1013.52
2018-07-30T07:30:04.146Z,1013.33
2018-07-30T07:31:04.186Z,1013.59
2018-07-30T07:32:04.258Z,1014.62
2018-07-30T07:33:04.334Z,1013.40
2018-07-30T07:34:04.406Z,1013.13
2018-07-30T07:35:04.641Z,1013.30
2018-07-30T07:36:04.587Z,1013.49
2018-07-30T07:37:04.634Z,1013.23
2018-07-30T07:38:04.702Z,1013.28
2018-07-30T07:39:04.780Z,1013.21
2018-07-30T07:40:04.859Z,1013.09
2018-07-30T07:41:04.948Z,1013.09
2018-07-30T07:42:05.003Z,1013.53
2018-07-30T07:43:05.079Z,1013.41
2018-07-30T07:44:05.154Z,1014.08
2018-07-30T07:45:05.330Z,1013.25
2018-07-30T07:46:05.302Z,1013.06
2018-07-30T07:47:05.374Z,1013.13
2018-07-30T07:48:05.454Z,1013.35
2018-07-30T07:49:05.530Z,1013.21
2018-07-30T07:50:05.689Z,1013.09
2018-07-30T07:51:05.732Z,1013.02
2018-07-30T07:52:05.761Z,1013.11
2018-07-30T07:53:05.830Z,1012.96
2018-07-30T07:54:05.911Z,1013.10
2018-07-30T07:55:05.990Z,1013.26
2018-07-30T07:56:06.067Z,1013.10
2018-07-30T07:57:06.139Z,1013.05
2018-07-30T07:58:06.215Z,1013.13
2018-07-30T07:59:06.287Z,1013.04
2018-07-30T08:00:06.363Z,1013.04
2018-07-30T08:01:06.463Z,1012.99
2018-07-30T08:02:06.511Z,1012.98
2018-07-30T08:03:06.587Z,1012.97
2018-07-30T08:04:06.663Z,1013.01
2018-07-30T08:05:06.822Z,1012.98
2018-07-30T08:06:06.838Z,1012.95
2018-07-30T08:07:06.895Z,1012.92
2018-07-30T08:08:06.971Z,1012.91
2018-07-30T08:09:07.040Z,1012.96
2018-07-30T08:10:07.119Z,1012.94
2018-07-30T08:11:07.516Z,1012.88
2018-07-30T08:12:07.271Z,1012.86
2018-07-30T08:13:07.339Z,1012.81
2018-07-30T08:14:07.415Z,1012.83
2018-07-30T08:15:07.487Z,1012.83
2018-07-30T08:16:07.571Z,1012.83
2018-07-30T08:17:07.647Z,1012.91
2018-07-30T08:18:07.716Z,1012.87
2018-07-30T08:19:07.792Z,1012.87
2018-07-30T08:20:07.870Z,1012.92
2018-07-30T08:21:07.947Z,1012.91
2018-07-30T08:22:08.035Z,1013.21
2018-07-30T08:23:08.091Z,1013.14
2018-07-30T08:24:08.163Z,1012.92
2018-07-30T08:25:08.235Z,1012.88
2018-07-30T08:26:08.352Z,1012.97
2018-07-30T08:27:08.396Z,1012.97
2018-07-30T08:28:08.467Z,1012.91
2018-07-30T08:29:08.603Z,1012.86
2018-07-30T08:30:08.623Z,1012.97
2018-07-30T08:31:08.699Z,1012.96
2018-07-30T08:32:08.775Z,1013.04
2018-07-30T08:33:08.895Z,1013.05
2018-07-30T08:34:08.915Z,1012.92
2018-07-30T08:35:08.988Z,1013.00
2018-07-30T08:36:09.083Z,1013.17
2018-07-30T08:37:09.143Z,1013.00
2018-07-30T08:38:09.219Z,1012.97
2018-07-30T08:39:09.296Z,1012.95
2018-07-30T08:40:09.371Z,1013.03
2018-07-30T08:41:09.452Z,1013.04
2018-07-30T08:42:09.554Z,1013.11
2018-07-30T08:43:09.591Z,1013.12
2018-07-30T08:44:09.675Z,1013.11
2018-07-30T08:45:09.750Z,1013.11
2018-07-30T08:46:09.832Z,1013.10
2018-07-30T08:47:09.910Z,1013.16
2018-07-30T08:48:09.979Z,1013.12
2018-07-30T08:49:10.052Z,1013.04
2018-07-30T08:50:10.128Z,1013.06
2018-07-30T08:51:10.356Z,1013.07
2018-07-30T08:52:10.283Z,1013.11
2018-07-30T08:53:10.356Z,1013.56
2018-07-30T08:54:10.436Z,1014.00
2018-07-30T08:55:10.510Z,1013.47
2018-07-30T08:56:10.588Z,1013.32
2018-07-30T08:57:10.988Z,1013.66
2018-07-30T08:58:10.736Z,1013.30
2018-07-30T08:59:10.812Z,1013.57
2018-07-30T09:00:10.889Z,1013.60
2018-07-30T09:01:10.968Z,1013.97
2018-07-30T09:02:11.356Z,1013.98
2018-07-30T09:03:11.124Z,1013.53
2018-07-30T09:04:11.208Z,1013.32
2018-07-30T09:05:11.280Z,1013.40
2018-07-30T09:06:11.360Z,1013.80
2018-07-30T09:07:11.486Z,1013.89
2018-07-30T09:08:11.521Z,1013.73
2018-07-30T09:09:11.592Z,1013.82
2018-07-30T09:10:11.673Z,1013.74
2018-07-30T09:11:11.753Z,1013.39
2018-07-30T09:12:11.837Z,1013.53
2018-07-30T09:13:11.915Z,1013.42
2018-07-30T09:14:11.993Z,1013.16
2018-07-30T09:15:12.073Z,1013.05
2018-07-30T09:16:12.150Z,1013.19
2018-07-30T09:17:12.298Z,1013.05
2018-07-30T09:18:12.324Z,1013.09
2018-07-30T09:19:12.385Z,1012.97
2018-07-30T09:20:12.469Z,1013.14
2018-07-30T09:21:12.545Z,1013.15
2018-07-30T09:22:12.633Z,1013.10
2018-07-30T09:23:12.717Z,1013.00
2018-07-30T09:24:12.785Z,1013.05
2018-07-30T09:25:12.861Z,1013.04
2018-07-30T09:26:12.945Z,1012.99
2018-07-30T09:27:13.036Z,1012.88
2018-07-30T09:28:13.113Z,1012.98
2018-07-30T09:29:13.186Z,1012.96
2018-07-30T09:30:13.257Z,1012.97
2018-07-30T09:31:13.338Z,1012.95
2018-07-30T09:32:13.425Z,1012.91
2018-07-30T09:33:13.534Z,1012.93
2018-07-30T09:34:13.578Z,1012.88
2018-07-30T09:35:13.653Z,1012.90
2018-07-30T09:36:13.733Z,1012.85
2018-07-30T09:37:13.822Z,1012.77
2018-07-30T09:38:13.902Z,1012.75
2018-07-30T09:39:14.032Z,1012.77
2018-07-30T09:40:14.050Z,1012.80
2018-07-30T09:41:14.130Z,1012.81
2018-07-30T09:42:14.238Z,1012.79
2018-07-30T09:43:14.289Z,1012.80
2018-07-30T09:44:14.366Z,1012.80
2018-07-30T09:45:14.446Z,1012.80
2018-07-30T09:46:14.526Z,1012.77
2018-07-30T09:47:14.610Z,1012.80
2018-07-30T09:48:14.689Z,1012.74
2018-07-30T09:49:14.766Z,1012.81
2018-07-30T09:50:14.838Z,1012.81
2018-07-30T09:51:14.918Z,1012.79
2018-07-30T09:52:15.002Z,1012.80
2018-07-30T09:53:15.082Z,1012.80
2018-07-30T09:54:15.153Z,1012.74
2018-07-30T09:55:15.234Z,1012.73
2018-07-30T09:56:15.404Z,1012.75
2018-07-30T09:57:15.794Z,1012.74
2018-07-30T09:58:15.466Z,1012.77
2018-07-30T09:59:15.546Z,1012.75
2018-07-30T10:00:15.622Z,1012.72
2018-07-30T10:01:15.698Z,1012.62
2018-07-30T10:02:15.778Z,1012.61
2018-07-30T10:03:16.103Z,1012.61
2018-07-30T10:04:15.938Z,1012.60
2018-07-30T10:05:16.019Z,1012.68
2018-07-30T10:06:16.154Z,1012.66
2018-07-30T10:07:16.167Z,1012.65
2018-07-30T10:08:16.251Z,1012.60
2018-07-30T10:09:16.340Z,1012.60
2018-07-30T10:10:16.405Z,1012.60
2018-07-30T10:11:16.699Z,1012.55
2018-07-30T10:12:16.559Z,1012.51
2018-07-30T10:13:16.655Z,1012.53
2018-07-30T10:14:16.715Z,1012.49
2018-07-30T10:15:16.815Z,1012.48
2018-07-30T10:16:16.871Z,1012.46
2018-07-30T10:17:16.940Z,1012.46
2018-07-30T10:18:17.039Z,1012.46
2018-07-30T10:19:17.103Z,1012.47
2018-07-30T10:20:17.171Z,1012.41
2018-07-30T10:21:17.252Z,1012.42
2018-07-30T10:22:17.327Z,1012.41
2018-07-30T10:23:17.717Z,1012.45
2018-07-30T10:24:17.488Z,1012.43
2018-07-30T10:25:17.560Z,1012.37
2018-07-30T10:26:17.635Z,1012.38
2018-07-30T10:27:17.751Z,1012.34
2018-07-30T10:28:17.795Z,1012.38
2018-07-30T10:29:17.890Z,1012.38
2018-07-30T10:30:17.944Z,1012.34
2018-07-30T10:31:18.024Z,1012.38
2018-07-30T10:32:18.098Z,1012.38
2018-07-30T10:33:18.284Z,1012.36
2018-07-30T10:34:18.251Z,1012.37
2018-07-30T10:35:18.324Z,1012.32
2018-07-30T10:36:18.400Z,1012.32
2018-07-30T10:37:18.476Z,1012.29
2018-07-30T10:38:18.725Z,1012.29
2018-07-30T10:39:18.636Z,1012.26
2018-07-30T10:40:18.712Z,1012.22
2018-07-30T10:41:18.780Z,1012.28
2018-07-30T10:42:18.858Z,1012.26
2018-07-30T10:43:18.951Z,1012.22
2018-07-30T10:44:19.017Z,1012.26
2018-07-30T10:45:19.085Z,1012.19
2018-07-30T10:46:19.210Z,1012.20
2018-07-30T10:47:19.237Z,1012.17
2018-07-30T10:48:19.478Z,1012.19
2018-07-30T10:49:19.405Z,1012.19
2018-07-30T10:50:19.468Z,1012.16
2018-07-30T10:51:19.548Z,1012.16
2018-07-30T10:52:19.617Z,1012.15
2018-07-30T10:53:19.709Z,1012.12
2018-07-30T10:54:19.769Z,1012.16
2018-07-30T10:55:19.865Z,1012.12
2018-07-30T10:56:19.925Z,1012.05
2018-07-30T10:57:19.993Z,1012.10
2018-07-30T10:58:20.113Z,1012.13
2018-07-30T10:59:20.145Z,1012.02
2018-07-30T11:00:20.225Z,1012.02
2018-07-30T11:01:20.297Z,1011.98
2018-07-30T11:02:20.370Z,1011.95
2018-07-30T11:03:20.453Z,1011.99
2018-07-30T11:04:20.535Z,1012.04
2018-07-30T11:05:20.601Z,1011.96
2018-07-30T11:06:20.673Z,1012.02
2018-07-30T11:07:20.749Z,1012.01
2018-07-30T11:08:20.826Z,1011.98
2018-07-30T11:09:20.905Z,1011.97
2018-07-30T11:10:20.974Z,1011.97
2018-07-30T11:11:21.049Z,1011.96
2018-07-30T11:12:21.125Z,1011.96
2018-07-30T11:13:21.357Z,1011.99
2018-07-30T11:14:21.274Z,1011.97
2018-07-30T11:15:21.350Z,1011.95
2018-07-30T11:16:21.430Z,1011.90
2018-07-30T11:17:21.507Z,1011.91
2018-07-30T11:18:21.581Z,1011.88
2018-07-30T11:19:21.657Z,1011.84
2018-07-30T11:20:21.725Z,1011.90
2018-07-30T11:21:21.801Z,1011.87
2018-07-30T11:22:21.881Z,1011.86
2018-07-30T11:23:21.965Z,1011.86
2018-07-30T11:24:22.034Z,1011.87
2018-07-30T11:25:22.117Z,1011.84
2018-07-30T11:26:22.177Z,1011.81
2018-07-30T11:27:22.253Z,1011.84
2018-07-30T11:28:22.569Z,1011.82
2018-07-30T11:29:22.402Z,1011.83
2018-07-30T11:30:22.478Z,1011.87
2018-07-30T11:31:22.553Z,1011.94
2018-07-30T11:32:22.634Z,1011.88
2018-07-30T11:33:22.713Z,1011.88
2018-07-30T11:34:22.786Z,1011.85
2018-07-30T11:35:22.854Z,1011.87
2018-07-30T11:36:22.930Z,1011.85
2018-07-30T11:37:23.006Z,1011.79
2018-07-30T11:38:23.234Z,1011.79
2018-07-30T11:39:23.158Z,1011.78
2018-07-30T11:40:23.230Z,1011.74
2018-07-30T11:41:23.302Z,1011.78
2018-07-30T11:42:23.378Z,1011.76
2018-07-30T11:43:23.462Z,1011.87
2018-07-30T11:44:23.538Z,1011.86
2018-07-30T11:45:23.626Z,1011.80
2018-07-30T11:46:23.679Z,1011.79
2018-07-30T11:47:23.754Z,1011.71
2018-07-30T11:48:23.899Z,1011.73
2018-07-30T11:49:23.910Z,1011.74
2018-07-30T11:50:23.978Z,1011.71
2018-07-30T11:51:24.055Z,1011.73
2018-07-30T11:52:24.131Z,1011.71
2018-07-30T11:53:24.380Z,1011.67
2018-07-30T11:54:24.408Z,1011.68
2018-07-30T11:55:24.355Z,1011.69
2018-07-30T11:56:24.439Z,1011.67
2018-07-30T11:57:24.508Z,1011.69
2018-07-30T11:58:24.587Z,1011.71
2018-07-30T11:59:24.671Z,1011.74
2018-07-30T12:00:24.731Z,1011.77
2018-07-30T12:01:24.848Z,1011.78
2018-07-30T12:02:24.887Z,1011.81
2018-07-30T12:03:24.964Z,1011.82
2018-07-30T12:04:25.036Z,1011.83
2018-07-30T12:05:25.104Z,1011.79
2018-07-30T12:06:25.179Z,1011.81